CheckWX is a tool to help pilots better visualize weather data.  It is not intended as a substitute for an official pre-flight weather briefing.

10:38:09 UTC

1A6 METAR
Middlesboro-Bell County Airport
Middlesboro, Kentucky, USA
Current

23 mins ago

K1A6 141015Z AUTO 00000KT 1/4SM FG OVC003 04/04 A3014 RMK AO2 T00440044
Observed
Oct-14 @ 10:15 UTC
Visibility
1/4 SM
Flight Rules
LIFR
Conditions
Fog
Cloud Levels
  • Overcast at 300' AGL
Temperature
C / 39°F
Dewpoint
C / 39°F
Humidity
100%
Altimeter
30.14" Hg
Pressure
1020.62 hPa
Previous

43 mins ago

K1A6 140955Z AUTO 00000KT 1/4SM FG OVC003 05/05 A3013 RMK AO2 T00460046
Observed
Oct-14 @ 09:55 UTC
Visibility
1/4 SM
Flight Rules
LIFR
Conditions
Fog
Cloud Levels
  • Overcast at 300' AGL
Temperature
C / 41°F
Dewpoint
C / 41°F
Humidity
100%
Altimeter
30.13" Hg
Pressure
1020.32 hPa
Previous

1 hour ago

K1A6 140935Z AUTO 00000KT 1/4SM FG OVC003 05/05 A3012 RMK AO2 T00460046
Observed
Oct-14 @ 09:35 UTC
Visibility
1/4 SM
Flight Rules
LIFR
Conditions
Fog
Cloud Levels
  • Overcast at 300' AGL
Temperature
C / 41°F
Dewpoint
C / 41°F
Humidity
100%
Altimeter
30.12" Hg
Pressure
1020.02 hPa